AirNav   Air Wisconsin Up To $57,000 Bonus
 
 759 users online  

0W0 Seattle Seaplanes Seaplane Base
Seattle, Washington, USA

GOING TO SEATTLE?


FAA INFORMATION EFFECTIVE 05 DECEMBER 2019

Location

FAA Identifier: 0W0
Lat/Long: 47-37-39.3530N 122-19-54.4570W
47-37.655883N 122-19.907617W
47.6275981,-122.3317936
(estimated)
Elevation: 14 ft. / 4 m (estimated)
Variation: 21E (1980)
From city: 1 mile N of SEATTLE, WA
Time zone: UTC -8 (UTC -7 during Daylight Saving Time)
Zip code: 98109

Seaplane Base Operations

Seaplane Base use: Open to the public
Activation date: 04/1986
Control tower: no
ARTCC: SEATTLE CENTER
FSS: SEATTLE FLIGHT SERVICE STATION
NOTAMs facility: SEA (NOTAM-D service available)
Attendance: 0800-DUSK
Wind indicator: yes
Segmented circle: no

Seaplane Base Communications

CTAF: 122.9
WX ASOS at BFI (6 nm S): PHONE 206-658-6435
WX ASOS at RNT (9 nm SE): 126.95 (425-255-6080)
WX ASOS at SEA (11 nm S): PHONE 206-214-2592
WX ASOS at PAE (17 nm N): 128.65 (425-355-6192)
WX AWOS-3PT at PWT (19 nm SW): 121.2 (360-674-2811)

Nearby radio navigation aids

VOR radial/distance  VOR name  Freq  Var
SEAr337/11.6SEATTLE VORTAC116.8019E
PAEr167/17.7PAINE VOR/DME110.6020E
TCMr356/29.4MCCHORD VORTAC109.6015E

 
NDB name  Hdg/Dist  Freq  Var  ID
LACOMAS358/38.332816ELAC .-.. .- -.-.

Seaplane Base Services

Airframe service: MINOR
Powerplant service: MINOR

Runway Information

Runway 18W/36W

Dimensions: 9500 x 300 ft. / 2896 x 91 m
Surface: water, in excellent condition
RUNWAY 18W  RUNWAY 36W
Traffic pattern: leftleft

Seaplane Base Ownership and Management from official FAA records

Ownership: Privately-owned
Owner: SEATTLE SEAPLANES
1325 FAIRVIEW EAST
SEATTLE, WA 98102
Phone 206-329-9638
Manager: JIM CHRYSLER
1325 FAIRVIEW EAST
SEATTLE, WA 98102
Phone 206-329-9638

Seaplane Base Operational Statistics

Aircraft based on the field: 4
Single engine airplanes: 4
    
Aircraft operations: avg 50/week *
96% air taxi
2% transient general aviation
2% local general aviation
* for 12-month period ending 31 December 2016

Additional Remarks

SMALL WATERCRAFT ACTVT ON LAKE.
FOR CD CTC SEATTLE APCH AT 206-214-4722.

Instrument Procedures

There are no published instrument procedures at 0W0.

Some nearby airports with instrument procedures:

KBFI - Boeing Field/King County International Airport (6 nm S)
KRNT - Renton Municipal Airport (9 nm SE)
KSEA - Seattle-Tacoma International Airport (11 nm S)
KPAE - Snohomish County Airport (Paine Field) (17 nm N)
S50 - Auburn Municipal Airport (18 nm S)
S43 - Harvey Field Airport (19 nm NE)
KPWT - Bremerton National Airport (19 nm SW)
 
Loc | Ops | Rwys | IFR | FBO | Links
Com | Nav | Svcs | Stats | Notes
Area around 0W0 (Seattle Seaplanes Seaplane Base)
 
Road maps at: MapQuest Bing Google
 
Aerial photo
WARNING: Photo may not be current or correct
Aerial photo of 0W0 (Seattle Seaplanes Seaplane Base)
Photo taken 24-Jan-2007

Do you have a better or more recent aerial photo of Seattle Seaplanes Seaplane Base that you would like to share? If so, please send us your photo.

 
Sectional chart

 
Airport distance calculator
Flying to Seattle Seaplanes Seaplane Base? Find the distance to fly.

From to 0W0

Sunrise and sunset
Times for 15-Dec-2019
 Local
(UTC-8)
 Zulu
(UTC)
Morning civil twilight07:1615:16
Sunrise07:5215:52
Sunset16:1700:17
Evening civil twilight16:5300:53

Current date and time
Zulu (UTC)  15-Dec-2019 21:23:13
Local (UTC-8)  15-Dec-2019 13:23:13
 
METAR
KBFI 
5nm S 
152053Z 00000KT 4SM BR BKN015 OVC020 06/03 A3023 RMK AO2 RAE50 SLP236 P0001 60004 T00560033 51009
KRNT 
9nm SE 
152053Z 20006KT 10SM FEW013 SCT027 OVC039 07/03 A3022 RMK AO2 SLP240 60000 T00670028 53002
KSEA 
11nm S 
152053Z 20006KT 10SM FEW013 BKN022 BKN032 06/03 A3021 RMK AO2 SLP241 T00560028 51009 $
KPAE 
17nm N 
152053Z 18008KT 10SM BKN008 BKN018 OVC029 06/03 A3021 RMK AO2 RAB36E46 SLP234 P0000 60001 T00610033 51010
KPWT 
19nm SW 
152056Z AUTO 00000KT 10SM OVC003 03/03 A3022 RMK AO2 SLP252 6//// T00330033 51010 PNO $
TAF
KBFI 
5nm S 
152009Z 1520/1618 VRB03KT P6SM VCSH SCT010 BKN025 TEMPO 1520/1522 4SM SHRA BR BKN008 OVC025 FM160000 VRB04KT P6SM SCT025 SCT050 FM160900 14006KT P6SM SCT010 BKN120 OVC200
KSEA 
11nm S 
151720Z 1518/1624 VRB04KT P6SM SCT025 BKN040 TEMPO 1518/1521 -SHRA BKN025 FM160000 VRB04KT P6SM SCT025 SCT050 FM160900 14006KT P6SM SCT010 BKN120 OVC200
KPAE 
17nm N 
152003Z 1520/1618 VRB04KT P6SM SCT005 BKN018 TEMPO 1520/1522 BKN003 BKN018 FM160000 VRB04KT P6SM SCT025 SCT050 FM160900 14006KT P6SM SCT010 BKN120 OVC200
KPWT 
19nm SW 
152006Z 1520/1618 VRB03KT P6SM BKN002 BKN015 TEMPO 1520/1522 3SM BR OVC001 FM152200 VRB03KT P6SM SCT005 BKN015 FM160000 15005KT P6SM SCT025 FM160900 15005KT 3SM BR BKN005 BKN120 OVC200
NOTAMs
Click for the latest NOTAMs
NOTAMs are issued by the DoD/FAA and will open in a separate window not controlled by AirNav.

 

 
 

Would you like to see your business listed on this page?

 If your business provides an interesting product or service to pilots, flight crews, aircraft, or users of the Seattle Seaplanes Seaplane Base, you should consider listing it here.  To start the listing process, click on the button below
 
Add a business
 

Other Pages about Seattle Seaplanes Seaplane Base

Update a link
 
Copyright © AirNav, LLC. All rights reserved. Privacy Policy  Contact